createdAt,value
2022-07-29T02:15:08.798Z,18.40
2022-07-29T02:17:47.914Z,18.40
2022-07-29T02:20:15.069Z,18.30
2022-07-29T02:22:43.723Z,18.20
2022-07-29T02:25:14.207Z,18.20
2022-07-29T02:27:43.684Z,18.20
2022-07-29T02:30:12.705Z,18.10
2022-07-29T02:32:42.762Z,18.20
2022-07-29T02:35:11.800Z,18.20
2022-07-29T02:37:39.760Z,18.10
2022-07-29T02:40:11.799Z,18.20
2022-07-29T02:42:44.950Z,18.30
2022-07-29T02:45:12.082Z,18.40
2022-07-29T02:47:48.683Z,18.50
2022-07-29T02:50:22.244Z,18.50
2022-07-29T02:53:17.406Z,18.40
2022-07-29T02:55:53.968Z,18.40
2022-07-29T02:58:30.164Z,18.40
2022-07-29T03:01:00.724Z,18.50
2022-07-29T03:03:32.162Z,18.40
2022-07-29T03:06:02.129Z,18.30
2022-07-29T03:08:29.609Z,18.40
2022-07-29T03:10:57.129Z,18.40
2022-07-29T03:13:24.768Z,18.50
2022-07-29T03:15:52.618Z,18.50
2022-07-29T03:18:19.773Z,18.50
2022-07-29T03:20:46.890Z,18.50
2022-07-29T03:23:24.848Z,18.40
2022-07-29T03:25:52.241Z,18.50
2022-07-29T03:28:19.965Z,18.40
2022-07-29T03:30:49.340Z,18.40
2022-07-29T03:33:16.759Z,18.40
2022-07-29T03:35:43.799Z,18.40
2022-07-29T03:38:10.922Z,18.30
2022-07-29T03:41:02.801Z,18.30
2022-07-29T03:43:35.120Z,18.30
2022-07-29T03:46:03.357Z,18.40
2022-07-29T03:48:34.120Z,18.40
2022-07-29T03:51:01.280Z,18.50
2022-07-29T03:53:28.405Z,18.50
2022-07-29T03:56:00.503Z,18.50
2022-07-29T03:58:28.919Z,18.40
2022-07-29T04:00:57.063Z,18.30
2022-07-29T04:03:24.623Z,18.30
2022-07-29T04:06:03.723Z,18.30
2022-07-29T04:08:32.000Z,18.30
2022-07-29T04:10:59.125Z,18.30
2022-07-29T04:13:26.230Z,18.30
2022-07-29T04:15:53.274Z,18.30
2022-07-29T04:18:20.418Z,18.20
2022-07-29T04:20:47.498Z,18.20
2022-07-29T04:23:14.503Z,18.30
2022-07-29T04:25:42.294Z,18.30
2022-07-29T04:28:10.562Z,18.30
2022-07-29T04:30:38.734Z,18.30
2022-07-29T04:33:09.006Z,18.10
2022-07-29T04:35:45.741Z,18.20
2022-07-29T04:38:17.704Z,18.20
2022-07-29T04:40:44.868Z,18.20
2022-07-29T04:43:12.598Z,18.20
2022-07-29T04:45:41.379Z,18.20
2022-07-29T04:48:08.461Z,18.20
2022-07-29T04:50:35.504Z,18.20
2022-07-29T04:53:02.462Z,18.20
2022-07-29T04:55:29.395Z,18.30
2022-07-29T04:57:56.380Z,18.30
2022-07-29T05:00:33.225Z,18.40
2022-07-29T05:03:00.979Z,18.40
2022-07-29T05:05:28.222Z,18.40
2022-07-29T05:07:55.343Z,18.50
2022-07-29T05:10:22.462Z,18.50
2022-07-29T05:12:49.703Z,18.50
2022-07-29T05:15:17.743Z,18.30
2022-07-29T05:17:45.535Z,18.30
2022-07-29T05:20:12.811Z,18.30
2022-07-29T05:22:39.779Z,18.20
2022-07-29T05:25:09.293Z,18.30
2022-07-29T05:27:37.908Z,18.40
2022-07-29T05:30:05.643Z,18.50
2022-07-29T05:32:32.920Z,18.50
2022-07-29T05:34:59.961Z,18.60
2022-07-29T05:37:27.041Z,18.70
2022-07-29T05:39:57.124Z,18.80
2022-07-29T05:42:26.024Z,18.80
2022-07-29T05:44:53.832Z,18.80
2022-07-29T05:47:20.832Z,18.80
2022-07-29T05:49:47.955Z,18.80
2022-07-29T05:52:15.361Z,18.70
2022-07-29T05:54:42.472Z,18.70
2022-07-29T05:57:09.838Z,18.70
2022-07-29T05:59:38.172Z,18.70
2022-07-29T06:02:06.347Z,18.70
2022-07-29T06:04:34.791Z,18.70
2022-07-29T06:07:02.914Z,18.70
2022-07-29T06:09:30.443Z,18.70
2022-07-29T06:11:59.042Z,18.80
2022-07-29T06:14:27.702Z,18.80
2022-07-29T06:16:54.886Z,18.90
2022-07-29T06:19:22.043Z,18.90
2022-07-29T06:21:49.502Z,19.00
2022-07-29T06:24:17.362Z,19.00
2022-07-29T06:26:47.023Z,19.00
2022-07-29T06:29:14.104Z,19.10
2022-07-29T06:31:41.535Z,19.10
2022-07-29T06:34:08.764Z,19.20
2022-07-29T06:36:37.916Z,19.20
2022-07-29T06:39:07.342Z,19.20
2022-07-29T06:41:35.502Z,19.20
2022-07-29T06:44:02.702Z,19.30
2022-07-29T06:46:30.092Z,19.20
2022-07-29T06:48:57.303Z,19.20
2022-07-29T06:51:24.902Z,19.20
2022-07-29T06:53:59.526Z,19.30
2022-07-29T06:56:31.781Z,19.50
2022-07-29T06:58:59.042Z,19.70
2022-07-29T07:01:26.323Z,19.90
2022-07-29T07:03:53.522Z,19.90
2022-07-29T07:06:20.523Z,20.00
2022-07-29T07:08:47.613Z,20.00
2022-07-29T07:11:14.758Z,20.00
2022-07-29T07:13:41.804Z,20.00
2022-07-29T07:16:09.165Z,20.00
2022-07-29T07:18:36.301Z,20.00
2022-07-29T07:21:03.439Z,20.10
2022-07-29T07:23:30.521Z,20.10
2022-07-29T07:25:57.620Z,20.10
2022-07-29T07:28:25.255Z,20.10
2022-07-29T07:30:53.026Z,20.10
2022-07-29T07:33:20.667Z,20.10
2022-07-29T07:35:48.085Z,20.10
2022-07-29T07:38:15.283Z,20.20
2022-07-29T07:40:42.410Z,20.20
2022-07-29T07:43:09.545Z,20.30
2022-07-29T07:45:38.617Z,20.40
2022-07-29T07:48:06.426Z,20.50
2022-07-29T07:50:33.608Z,20.60
2022-07-29T07:53:03.176Z,20.80
2022-07-29T07:55:42.367Z,20.90
2022-07-29T07:58:17.364Z,20.90
2022-07-29T08:00:44.686Z,21.00
2022-07-29T08:03:16.969Z,21.00
2022-07-29T08:05:45.030Z,21.10
2022-07-29T08:08:12.076Z,21.10
2022-07-29T08:10:54.331Z,21.30
2022-07-29T08:13:23.423Z,21.40
2022-07-29T08:16:01.068Z,21.60
2022-07-29T08:18:30.208Z,21.80
2022-07-29T08:20:57.624Z,21.90
2022-07-29T08:23:25.432Z,22.10
2022-07-29T08:25:54.766Z,22.20
2022-07-29T09:30:57.816Z,24.10
2022-07-29T09:33:31.945Z,24.20
2022-07-29T09:36:08.958Z,24.20
2022-07-29T09:38:37.859Z,24.30
2022-07-29T09:41:06.953Z,24.40
2022-07-29T09:43:35.185Z,24.30
2022-07-29T09:46:13.169Z,24.20
2022-07-29T09:48:40.534Z,24.10
2022-07-29T11:27:18.276Z,19.60
2022-07-29T11:30:04.819Z,19.40
2022-07-29T11:32:41.440Z,19.20
2022-07-29T11:35:38.325Z,19.00
2022-07-29T11:38:28.029Z,18.90
2022-07-29T11:41:19.145Z,18.80
2022-07-29T11:43:52.640Z,18.70
2022-07-29T11:46:50.126Z,18.70
2022-07-29T11:49:32.312Z,18.50
2022-07-29T11:52:04.205Z,18.30
2022-07-29T11:57:36.075Z,18.50
2022-07-29T12:00:12.295Z,18.70
2022-07-29T12:02:43.349Z,18.90
2022-07-29T12:05:14.701Z,19.20
2022-07-29T12:07:47.151Z,21.20
2022-07-29T12:10:19.772Z,19.20
2022-07-29T12:12:53.870Z,19.30
2022-07-29T12:15:22.326Z,19.30
2022-07-29T12:17:49.930Z,19.40
2022-07-29T12:20:28.310Z,19.50
2022-07-29T12:23:05.961Z,19.40
2022-07-29T12:25:35.940Z,19.20
2022-07-29T12:28:05.905Z,19.10
2022-07-29T12:30:49.682Z,19.10
2022-07-29T12:33:27.600Z,19.10
2022-07-29T12:36:12.823Z,19.10
2022-07-29T12:38:44.662Z,19.30
2022-07-29T12:41:11.902Z,19.50
2022-07-29T12:43:55.979Z,19.60
2022-07-29T12:46:23.126Z,19.80
2022-07-29T12:48:58.454Z,19.90
2022-07-29T12:51:41.773Z,19.80
2022-07-29T12:54:14.630Z,19.70
2022-07-29T12:56:44.327Z,19.70
2022-07-29T12:59:17.565Z,19.80
2022-07-29T13:01:45.668Z,19.80
2022-07-29T13:04:24.746Z,19.90
2022-07-29T13:07:09.200Z,20.10
2022-07-29T13:09:43.010Z,20.20
2022-07-29T13:12:12.766Z,20.40
2022-07-29T13:14:51.132Z,20.60
2022-07-29T13:17:32.801Z,20.70
2022-07-29T13:20:13.431Z,20.90
2022-07-29T13:22:41.266Z,21.00
2022-07-29T13:25:09.226Z,21.10
2022-07-29T13:27:38.870Z,21.20
2022-07-29T13:30:08.663Z,21.30
2022-07-29T13:32:37.127Z,21.40
2022-07-29T13:35:06.918Z,21.30
